createdAt,value
2018-09-08T00:00:50.434Z,19.33
2018-09-08T00:03:19.352Z,18.30
2018-09-08T00:05:48.509Z,18.20
2018-09-08T00:08:17.450Z,18.47
2018-09-08T00:10:46.276Z,18.63
2018-09-08T00:13:15.127Z,17.27
2018-09-08T00:15:49.099Z,18.00
2018-09-08T00:18:23.192Z,17.70
2018-09-08T00:20:57.416Z,19.03
2018-09-08T00:23:31.421Z,18.30
2018-09-08T00:26:05.764Z,18.03
2018-09-08T00:28:45.636Z,19.37
2018-09-08T00:31:17.967Z,19.73
2018-09-08T00:33:47.811Z,18.63
2018-09-08T00:36:17.497Z,19.27
2018-09-08T00:38:46.764Z,18.80
2018-09-08T00:41:15.864Z,18.63
2018-09-08T00:43:44.840Z,18.87
2018-09-08T00:46:13.642Z,18.27
2018-09-08T00:48:42.564Z,18.80
2018-09-08T00:51:10.284Z,17.33
2018-09-08T00:53:39.548Z,16.80
2018-09-08T00:56:08.659Z,16.33
2018-09-08T00:58:37.792Z,17.83
2018-09-08T01:01:06.876Z,17.37
2018-09-08T01:03:36.210Z,16.93
2018-09-08T01:06:05.062Z,16.73
2018-09-08T01:08:33.920Z,17.53
2018-09-08T01:11:03.277Z,18.23
2018-09-08T01:13:32.225Z,19.17
2018-09-08T01:16:01.499Z,18.53
2018-09-08T01:18:30.593Z,19.07
2018-09-08T01:20:59.830Z,18.00
2018-09-08T01:23:28.808Z,18.90
2018-09-08T01:25:58.164Z,18.40
2018-09-08T01:28:27.149Z,19.17
2018-09-08T01:30:56.035Z,18.80
2018-09-08T01:33:24.948Z,18.20
2018-09-08T01:35:53.888Z,19.70
2018-09-08T01:38:22.754Z,18.73
2018-09-08T01:40:51.603Z,18.40
2018-09-08T01:43:20.628Z,20.70
2018-09-08T01:45:49.485Z,18.27
2018-09-08T01:48:18.396Z,18.87
2018-09-08T01:50:47.602Z,18.73
2018-09-08T01:53:16.531Z,19.10
2018-09-08T01:55:45.712Z,18.93
2018-09-08T01:58:14.952Z,19.37
2018-09-08T02:00:44.912Z,19.07
2018-09-08T02:03:13.883Z,19.80
2018-09-08T02:05:42.731Z,18.80
2018-09-08T02:08:11.660Z,19.23
2018-09-08T02:10:40.548Z,19.43
2018-09-08T02:13:09.488Z,20.17
2018-09-08T02:15:38.312Z,20.30
2018-09-08T02:18:07.243Z,20.37
2018-09-08T02:20:36.167Z,20.13
2018-09-08T02:23:05.438Z,20.80
2018-09-08T02:25:34.352Z,21.10
2018-09-08T02:28:03.176Z,20.07
2018-09-08T02:30:32.320Z,21.97
2018-09-08T02:33:01.395Z,21.50
2018-09-08T02:35:30.322Z,21.37
2018-09-08T02:37:59.684Z,20.53
2018-09-08T02:40:28.643Z,20.87
2018-09-08T02:42:57.472Z,21.37
2018-09-08T02:45:26.403Z,20.53
2018-09-08T02:47:55.254Z,21.27
2018-09-08T02:50:43.743Z,21.03
2018-09-08T02:53:12.460Z,21.40
2018-09-08T02:55:40.397Z,21.50
2018-09-08T02:58:07.940Z,23.17
2018-09-08T03:00:35.446Z,22.20
2018-09-08T03:03:02.942Z,22.40
2018-09-08T03:05:30.384Z,22.23
2018-09-08T03:07:57.859Z,23.40
2018-09-08T03:10:25.471Z,22.97
2018-09-08T03:12:52.924Z,22.97
2018-09-08T03:15:20.484Z,23.07
2018-09-08T03:17:48.012Z,26.10
2018-09-08T03:20:15.576Z,24.97
2018-09-08T03:22:43.148Z,24.00
2018-09-08T03:25:10.669Z,24.20
2018-09-08T03:27:38.844Z,23.67
2018-09-08T03:30:06.753Z,25.10
2018-09-08T03:32:34.236Z,24.97
2018-09-08T03:35:01.888Z,24.60
2018-09-08T03:37:29.321Z,23.63
2018-09-08T03:39:56.883Z,23.27
2018-09-08T03:42:24.611Z,24.93
2018-09-08T03:44:52.221Z,25.50
2018-09-08T03:47:19.764Z,24.23
2018-09-08T03:49:47.296Z,24.97
2018-09-08T03:52:14.748Z,24.63
2018-09-08T03:54:42.389Z,23.30
2018-09-08T03:57:09.871Z,24.40
2018-09-08T03:59:37.444Z,26.00
2018-09-08T04:02:04.910Z,25.80
2018-09-08T04:04:33.815Z,25.30
2018-09-08T04:07:02.789Z,25.27
2018-09-08T04:09:31.644Z,25.30
2018-09-08T04:12:00.656Z,25.57
2018-09-08T04:14:29.498Z,26.20
2018-09-08T04:16:58.508Z,25.77
2018-09-08T04:19:27.344Z,25.97
2018-09-08T04:21:56.268Z,25.67
2018-09-08T04:24:25.261Z,26.40
2018-09-08T04:26:54.229Z,27.93
2018-09-08T04:29:23.669Z,28.37
2018-09-08T04:31:52.696Z,29.87
2018-09-08T04:34:21.616Z,27.77
2018-09-08T04:36:50.908Z,27.33
2018-09-08T04:39:19.765Z,24.97
2018-09-08T04:41:48.576Z,24.43
2018-09-08T04:44:17.476Z,21.00
2018-09-08T04:46:46.411Z,21.57
2018-09-08T04:49:15.484Z,20.20
2018-09-08T04:51:44.752Z,20.80
2018-09-08T04:54:13.987Z,20.60
2018-09-08T04:56:43.248Z,22.47
2018-09-08T04:59:12.100Z,22.07
2018-09-08T05:01:40.928Z,24.13
2018-09-08T05:04:09.861Z,27.27
2018-09-08T05:06:39.088Z,28.20
2018-09-08T05:09:10.458Z,27.90
2018-09-08T05:11:39.370Z,27.07
2018-09-08T05:14:08.336Z,25.97
2018-09-08T05:16:37.237Z,23.67
2018-09-08T05:19:06.160Z,23.93
2018-09-08T05:21:35.482Z,24.13
2018-09-08T05:24:04.500Z,22.53
2018-09-08T05:26:33.693Z,24.43
2018-09-08T05:29:02.859Z,22.17
2018-09-08T05:31:31.811Z,22.37
2018-09-08T05:34:00.982Z,21.50
2018-09-08T05:36:30.248Z,21.83
2018-09-08T05:38:59.400Z,20.60
2018-09-08T05:41:28.759Z,19.47
2018-09-08T05:43:57.716Z,22.03
2018-09-08T05:46:26.591Z,21.83
2018-09-08T05:48:55.557Z,20.97
2018-09-08T05:51:24.557Z,21.00
2018-09-08T05:53:53.480Z,22.90
2018-09-08T05:56:21.267Z,22.90
2018-09-08T05:58:50.247Z,21.43
2018-09-08T06:01:19.145Z,20.50
2018-09-08T06:03:48.124Z,19.40
2018-09-08T06:06:16.985Z,20.00
2018-09-08T06:08:45.900Z,21.83
2018-09-08T06:11:14.905Z,21.23
2018-09-08T06:13:43.830Z,21.83
2018-09-08T06:16:12.766Z,23.03
2018-09-08T06:18:41.632Z,21.93
2018-09-08T06:21:10.485Z,22.13
2018-09-08T06:23:39.357Z,19.93
2018-09-08T06:26:08.320Z,20.90
2018-09-08T06:28:37.355Z,21.27
2018-09-08T06:31:06.506Z,20.63
2018-09-08T06:33:35.988Z,20.97
2018-09-08T06:36:05.432Z,20.67
2018-09-08T06:38:34.397Z,20.07
2018-09-08T06:41:03.322Z,21.57
2018-09-08T06:43:32.244Z,20.10
2018-09-08T06:46:01.152Z,20.40
2018-09-08T06:48:30.107Z,20.33
2018-09-08T06:50:59.027Z,19.93
2018-09-08T06:53:27.981Z,20.13
2018-09-08T06:55:56.915Z,19.87
2018-09-08T06:58:25.852Z,19.50
2018-09-08T07:00:54.868Z,19.10
2018-09-08T07:03:23.882Z,19.73
2018-09-08T07:05:52.823Z,19.47
2018-09-08T07:08:21.726Z,19.70
2018-09-08T07:10:50.806Z,21.13
2018-09-08T07:13:19.660Z,18.20
2018-09-08T07:15:48.687Z,18.13
2018-09-08T07:18:17.700Z,18.40
2018-09-08T07:20:46.575Z,18.27
2018-09-08T07:23:15.501Z,17.93
2018-09-08T07:25:44.416Z,17.77
2018-09-08T07:28:13.383Z,18.00
2018-09-08T07:30:42.198Z,17.80
2018-09-08T07:33:11.048Z,18.03
2018-09-08T07:35:40.308Z,17.33
2018-09-08T07:38:09.101Z,18.03
2018-09-08T07:40:38.029Z,19.70
2018-09-08T07:43:06.999Z,19.57
2018-09-08T07:45:36.024Z,20.50
2018-09-08T07:48:04.973Z,20.80
2018-09-08T07:50:33.893Z,20.53
2018-09-08T07:53:02.859Z,19.30
2018-09-08T07:55:31.820Z,19.10
2018-09-08T07:58:00.924Z,19.70
2018-09-08T08:00:29.989Z,17.80
2018-09-08T08:02:58.972Z,17.80
2018-09-08T08:05:27.889Z,18.17
2018-09-08T08:07:56.825Z,17.47
2018-09-08T08:10:25.832Z,17.90
2018-09-08T08:12:54.661Z,17.03
2018-09-08T08:15:23.594Z,15.30
2018-09-08T08:17:52.507Z,15.53
2018-09-08T08:20:21.401Z,13.77
2018-09-08T08:22:50.412Z,14.70
2018-09-08T08:25:19.368Z,13.80
2018-09-08T08:27:48.321Z,13.33
2018-09-08T08:30:17.576Z,12.03
2018-09-08T08:32:46.524Z,12.30
2018-09-08T08:35:15.686Z,11.23
2018-09-08T08:37:44.884Z,10.73
2018-09-08T08:40:14.112Z,10.97
2018-09-08T08:42:43.356Z,10.33
2018-09-08T08:45:12.200Z,11.53
2018-09-08T08:47:41.116Z,12.07
2018-09-08T08:50:20.820Z,9.87
2018-09-08T08:53:00.774Z,10.23
2018-09-08T08:55:30.075Z,11.17
2018-09-08T08:57:58.899Z,11.30
2018-09-08T09:00:27.980Z,11.00
2018-09-08T09:02:57.315Z,10.27
2018-09-08T09:05:26.578Z,10.73
2018-09-08T09:07:55.872Z,9.53
2018-09-08T09:10:24.968Z,10.63
2018-09-08T09:12:53.955Z,10.77
2018-09-08T09:15:23.536Z,10.30
2018-09-08T09:17:52.240Z,10.03
2018-09-08T09:20:32.039Z,9.47
2018-09-08T09:23:11.919Z,11.83
2018-09-08T09:25:40.944Z,10.40
2018-09-08T09:28:10.036Z,10.50
2018-09-08T09:30:39.199Z,10.70
2018-09-08T09:33:08.116Z,10.80
2018-09-08T09:35:37.052Z,10.13
2018-09-08T09:38:06.258Z,10.00
2018-09-08T09:40:35.570Z,10.33
2018-09-08T09:43:04.596Z,10.77
2018-09-08T09:45:33.467Z,10.93
2018-09-08T09:48:02.604Z,10.80
2018-09-08T09:50:31.916Z,11.37
2018-09-08T09:53:00.815Z,10.70
2018-09-08T09:55:29.852Z,10.10
2018-09-08T09:57:59.343Z,10.33
2018-09-08T10:00:33.532Z,9.97
2018-09-08T10:03:08.336Z,10.63
2018-09-08T10:05:37.851Z,10.03
2018-09-08T10:08:08.046Z,11.20
2018-09-08T10:10:37.228Z,11.10
2018-09-08T10:13:06.481Z,10.50
2018-09-08T10:15:35.372Z,10.53
2018-09-08T10:18:04.538Z,11.03
2018-09-08T10:20:33.468Z,9.50
2018-09-08T10:23:02.838Z,10.23
2018-09-08T10:25:31.836Z,11.10
2018-09-08T10:28:01.161Z,10.47
2018-09-08T10:30:30.344Z,9.43
2018-09-08T10:32:59.685Z,11.10
2018-09-08T10:35:28.929Z,9.50
2018-09-08T10:37:58.151Z,9.50
2018-09-08T10:40:27.087Z,10.37
2018-09-08T10:42:55.933Z,9.47
2018-09-08T10:45:24.883Z,9.17
2018-09-08T10:47:54.261Z,9.03
2018-09-08T10:50:23.234Z,9.70
2018-09-08T10:52:52.218Z,10.07
2018-09-08T10:55:21.181Z,10.23
2018-09-08T10:57:50.109Z,10.13
2018-09-08T11:00:19.138Z,9.93
2018-09-08T11:02:48.731Z,10.40
2018-09-08T11:05:17.588Z,12.17
2018-09-08T11:07:46.891Z,9.60
2018-09-08T11:10:15.769Z,12.67
2018-09-08T11:12:45.033Z,10.33
2018-09-08T11:15:14.000Z,10.10
2018-09-08T11:17:43.216Z,9.90
2018-09-08T11:20:12.088Z,10.70
2018-09-08T11:22:41.413Z,10.10
2018-09-08T11:25:10.288Z,9.57
2018-09-08T11:27:39.479Z,10.60
2018-09-08T11:30:08.593Z,9.97
2018-09-08T11:32:37.632Z,10.23
2018-09-08T11:35:06.530Z,9.70
2018-09-08T11:37:35.510Z,10.07
2018-09-08T11:40:04.347Z,9.77
2018-09-08T11:42:33.285Z,10.33
2018-09-08T11:45:02.245Z,12.47
2018-09-08T11:47:31.169Z,10.57
2018-09-08T11:50:00.349Z,10.53
2018-09-08T11:52:29.191Z,11.00
2018-09-08T11:54:59.105Z,17.03
2018-09-08T11:57:28.068Z,10.30
2018-09-08T11:59:57.028Z,9.50
2018-09-08T12:02:25.956Z,10.40
2018-09-08T12:04:54.896Z,10.67
2018-09-08T12:07:24.057Z,10.47
2018-09-08T12:09:52.980Z,9.40
2018-09-08T12:12:22.388Z,9.77
2018-09-08T12:14:51.532Z,9.20
2018-09-08T12:17:20.450Z,9.53
2018-09-08T12:19:49.693Z,10.17
2018-09-08T12:22:18.765Z,8.97
2018-09-08T12:24:48.316Z,11.27
2018-09-08T12:27:17.252Z,9.27
2018-09-08T12:29:46.156Z,9.47
2018-09-08T12:32:15.193Z,9.17
2018-09-08T12:34:44.048Z,9.40
2018-09-08T12:37:13.055Z,9.00
2018-09-08T12:39:41.952Z,8.60
2018-09-08T12:42:10.820Z,9.90
2018-09-08T12:44:40.165Z,9.23
2018-09-08T12:47:09.299Z,9.00
2018-09-08T12:49:38.544Z,9.63
2018-09-08T12:52:07.877Z,9.03
2018-09-08T12:54:36.952Z,8.87
2018-09-08T12:57:05.881Z,10.00
2018-09-08T12:59:34.860Z,10.03
2018-09-08T13:02:03.857Z,9.43
2018-09-08T13:04:32.772Z,9.90
2018-09-08T13:07:01.713Z,9.17
2018-09-08T13:09:30.659Z,9.20
2018-09-08T13:11:59.752Z,9.67
2018-09-08T13:14:28.792Z,10.53
2018-09-08T13:16:57.726Z,9.90
2018-09-08T13:19:27.041Z,9.23
2018-09-08T13:21:55.915Z,8.73
2018-09-08T13:24:24.832Z,9.40
2018-09-08T13:26:53.860Z,8.77
2018-09-08T13:29:22.936Z,9.63
2018-09-08T13:31:51.997Z,9.30
2018-09-08T13:34:20.843Z,9.07
2018-09-08T13:36:49.809Z,10.63
2018-09-08T13:39:18.755Z,10.47
2018-09-08T13:41:48.134Z,8.87
2018-09-08T13:44:17.099Z,8.87
2018-09-08T13:46:46.048Z,8.83
2018-09-08T13:49:15.107Z,9.30
2018-09-08T13:51:44.355Z,8.80
2018-09-08T13:54:13.568Z,9.47
2018-09-08T13:56:42.400Z,9.40
2018-09-08T13:59:11.321Z,9.67
2018-09-08T14:01:40.305Z,9.80
2018-09-08T14:04:09.313Z,9.97
2018-09-08T14:06:38.206Z,8.57
2018-09-08T14:09:07.701Z,9.57
2018-09-08T14:11:36.636Z,9.70
2018-09-08T14:14:05.708Z,8.73
2018-09-08T14:16:34.628Z,8.77
2018-09-08T14:19:03.700Z,8.83
2018-09-08T14:21:32.901Z,9.20
2018-09-08T14:24:02.304Z,9.97
2018-09-08T14:26:31.132Z,10.27
2018-09-08T14:28:59.976Z,9.07
2018-09-08T14:31:29.552Z,8.10
2018-09-08T14:33:58.503Z,9.30
2018-09-08T14:36:27.352Z,9.50
2018-09-08T14:38:56.476Z,8.90
2018-09-08T14:41:25.393Z,9.00
2018-09-08T14:43:54.292Z,10.27
2018-09-08T14:46:23.428Z,9.93
2018-09-08T14:48:52.420Z,9.73
2018-09-08T14:51:21.488Z,9.13
2018-09-08T14:53:50.325Z,8.60
2018-09-08T14:56:19.292Z,9.33
2018-09-08T14:58:48.168Z,9.23
2018-09-08T15:01:17.108Z,10.47
2018-09-08T15:03:46.397Z,9.53
2018-09-08T15:06:16.908Z,9.27
2018-09-08T15:08:46.075Z,9.97
2018-09-08T15:11:14.980Z,10.07
2018-09-08T15:13:43.952Z,9.43
2018-09-08T15:16:12.763Z,9.40
2018-09-08T15:18:41.746Z,9.70
2018-09-08T15:21:10.764Z,9.40
2018-09-08T15:23:39.595Z,10.00
2018-09-08T15:26:08.593Z,9.20
2018-09-08T15:28:37.416Z,10.77
2018-09-08T15:31:06.228Z,9.83
2018-09-08T15:33:35.120Z,9.33
2018-09-08T15:36:04.328Z,9.57
2018-09-08T15:38:33.250Z,10.27
2018-09-08T15:41:02.229Z,9.33
2018-09-08T15:43:31.200Z,10.17
2018-09-08T15:46:00.288Z,10.70
2018-09-08T15:48:29.157Z,9.73
2018-09-08T15:50:58.002Z,9.77
2018-09-08T15:53:27.265Z,9.47
2018-09-08T15:55:56.446Z,10.03
2018-09-08T15:58:25.646Z,10.23
2018-09-08T16:00:54.928Z,9.53
2018-09-08T16:03:24.179Z,9.87
2018-09-08T16:05:53.499Z,12.83
2018-09-08T16:08:22.720Z,9.57
2018-09-08T16:10:51.842Z,9.80
2018-09-08T16:13:21.227Z,10.60
2018-09-08T16:15:50.755Z,9.77
2018-09-08T16:18:20.112Z,10.87
2018-09-08T16:20:49.438Z,10.70
2018-09-08T16:23:18.960Z,10.27
2018-09-08T16:25:48.409Z,10.73
2018-09-08T16:28:18.221Z,10.27
2018-09-08T16:30:47.625Z,10.43
2018-09-08T16:33:16.683Z,11.67
2018-09-08T16:35:45.748Z,10.50
2018-09-08T16:38:14.729Z,11.13
2018-09-08T16:40:43.955Z,13.30
2018-09-08T16:43:13.516Z,15.67
2018-09-08T16:45:42.867Z,14.00
2018-09-08T16:48:12.082Z,27.63
2018-09-08T16:50:41.277Z,13.23
2018-09-08T16:53:10.307Z,23.53
2018-09-08T16:55:39.288Z,22.73
2018-09-08T16:58:08.308Z,12.63
2018-09-08T17:00:37.551Z,11.93
2018-09-08T17:03:06.897Z,12.97
2018-09-08T17:05:36.025Z,13.33
2018-09-08T17:08:05.220Z,11.70
2018-09-08T17:10:34.130Z,11.57
2018-09-08T17:13:03.097Z,12.20
2018-09-08T17:15:32.057Z,11.60
2018-09-08T17:18:01.335Z,11.73
2018-09-08T17:20:30.645Z,10.57
2018-09-08T17:23:00.084Z,12.00
2018-09-08T17:25:29.235Z,14.27
2018-09-08T17:27:58.060Z,12.60
2018-09-08T17:30:27.344Z,12.67
2018-09-08T17:32:56.553Z,11.17
2018-09-08T17:35:25.760Z,12.80
2018-09-08T17:37:54.904Z,11.00
2018-09-08T17:40:24.193Z,10.93
2018-09-08T17:42:53.495Z,12.33
2018-09-08T17:45:22.496Z,11.53
2018-09-08T17:47:51.432Z,11.43
2018-09-08T17:50:20.365Z,12.43
2018-09-08T17:52:49.238Z,12.80
2018-09-08T17:55:18.308Z,12.93
2018-09-08T17:57:47.206Z,13.53
2018-09-08T18:00:16.399Z,12.43
2018-09-08T18:02:45.409Z,11.77
2018-09-08T18:05:14.296Z,11.40
2018-09-08T18:07:44.180Z,13.53
2018-09-08T18:10:13.016Z,11.03
2018-09-08T18:12:41.860Z,12.10
2018-09-08T18:15:11.142Z,12.30
2018-09-08T18:17:40.072Z,11.83
2018-09-08T18:20:09.032Z,11.50
2018-09-08T18:22:38.117Z,12.60
2018-09-08T18:25:07.129Z,12.47
2018-09-08T18:27:36.032Z,11.47
2018-09-08T18:30:04.885Z,12.90
2018-09-08T18:32:33.792Z,12.33
2018-09-08T18:35:02.692Z,12.77
2018-09-08T18:37:31.665Z,12.33
2018-09-08T18:40:00.551Z,11.33
2018-09-08T18:42:29.454Z,12.00
2018-09-08T18:44:58.361Z,11.87
2018-09-08T18:47:27.320Z,11.63
2018-09-08T18:49:56.384Z,12.80
2018-09-08T18:52:25.364Z,13.00
2018-09-08T18:54:54.309Z,12.33
2018-09-08T18:57:23.256Z,12.07
2018-09-08T18:59:52.240Z,12.73
2018-09-08T19:02:21.145Z,14.47
2018-09-08T19:04:50.529Z,15.73
2018-09-08T19:07:19.728Z,15.20
2018-09-08T19:10:06.469Z,13.93
2018-09-08T19:12:36.275Z,12.93
2018-09-08T19:15:10.296Z,12.50
2018-09-08T19:17:39.208Z,13.47
2018-09-08T19:20:13.145Z,11.77
2018-09-08T19:22:42.280Z,11.90
2018-09-08T19:25:11.193Z,12.97
2018-09-08T19:27:40.120Z,14.13
2018-09-08T19:30:09.152Z,12.73
2018-09-08T19:32:38.010Z,13.13
2018-09-08T19:35:12.052Z,13.33
2018-09-08T19:37:40.950Z,12.87
2018-09-08T19:40:14.836Z,12.23
2018-09-08T19:42:43.798Z,12.53
2018-09-08T19:45:12.920Z,13.57
2018-09-08T19:47:46.782Z,13.33
2018-09-08T19:50:15.779Z,13.03
2018-09-08T19:52:49.921Z,12.83
2018-09-08T19:55:18.790Z,12.97
2018-09-08T19:57:52.670Z,13.77
2018-09-08T20:00:21.651Z,14.03
2018-09-08T20:02:50.708Z,13.90
2018-09-08T20:05:19.556Z,14.97
2018-09-08T20:07:48.533Z,12.53
2018-09-08T20:10:17.394Z,13.57
2018-09-08T20:12:46.259Z,13.57
2018-09-08T20:15:15.268Z,13.17
2018-09-08T20:17:44.301Z,14.30
2018-09-08T20:20:13.273Z,14.53
2018-09-08T20:22:42.568Z,14.57
2018-09-08T20:25:11.499Z,16.60
2018-09-08T20:27:40.305Z,15.73
2018-09-08T20:30:09.848Z,15.60
2018-09-08T20:32:38.824Z,15.67
2018-09-08T20:35:07.859Z,14.80
2018-09-08T20:37:36.797Z,14.57
2018-09-08T20:40:05.976Z,15.07
2018-09-08T20:42:34.938Z,15.10
2018-09-08T20:45:03.733Z,14.77
2018-09-08T20:47:32.792Z,22.17
2018-09-08T20:50:01.733Z,16.30
2018-09-08T20:52:30.658Z,16.10
2018-09-08T20:54:59.623Z,15.33
2018-09-08T20:57:28.444Z,12.60
2018-09-08T20:59:57.369Z,12.37
2018-09-08T21:02:26.641Z,13.00
2018-09-08T21:04:55.544Z,13.33
2018-09-08T21:07:24.507Z,14.53
2018-09-08T21:09:53.486Z,13.23
2018-09-08T21:12:22.348Z,13.77
2018-09-08T21:14:51.260Z,13.00
2018-09-08T21:17:20.133Z,12.27
2018-09-08T21:19:49.016Z,11.67
2018-09-08T21:22:17.927Z,12.07
2018-09-08T21:24:46.836Z,12.60
2018-09-08T21:27:15.683Z,11.97
2018-09-08T21:29:44.574Z,13.73
2018-09-08T21:32:13.817Z,13.23
2018-09-08T21:34:42.667Z,13.77
2018-09-08T21:37:11.555Z,14.53
2018-09-08T21:39:40.520Z,14.90
2018-09-08T21:42:09.469Z,14.67
2018-09-08T21:44:38.316Z,15.40
2018-09-08T21:47:07.326Z,16.63
2018-09-08T21:49:36.284Z,16.00
2018-09-08T21:52:05.130Z,14.80
2018-09-08T21:54:34.059Z,16.27
2018-09-08T21:57:02.934Z,16.33
2018-09-08T21:59:32.141Z,16.80
2018-09-08T22:02:01.172Z,16.93
2018-09-08T22:04:30.138Z,18.07
2018-09-08T22:06:59.080Z,17.60
2018-09-08T22:09:28.002Z,18.10
2018-09-08T22:11:56.932Z,19.33
2018-09-08T22:14:25.869Z,17.77
2018-09-08T22:16:55.055Z,18.13
2018-09-08T22:19:24.651Z,17.13
2018-09-08T22:21:53.612Z,17.40
2018-09-08T22:24:22.454Z,17.20
2018-09-08T22:26:51.380Z,17.97
2018-09-08T22:29:20.339Z,17.57
2018-09-08T22:31:49.180Z,18.53
2018-09-08T22:34:18.432Z,18.03
2018-09-08T22:36:47.387Z,18.87
2018-09-08T22:39:16.275Z,17.97
2018-09-08T22:41:46.017Z,19.13
2018-09-08T22:44:14.851Z,18.33
2018-09-08T22:46:43.979Z,20.07
2018-09-08T22:49:12.910Z,20.27
2018-09-08T22:51:41.958Z,19.63
2018-09-08T22:54:11.310Z,19.43
2018-09-08T22:56:40.314Z,18.57
2018-09-08T22:59:09.205Z,18.80
2018-09-08T23:01:38.521Z,17.93
2018-09-08T23:04:07.547Z,16.60
2018-09-08T23:06:36.417Z,17.30
2018-09-08T23:09:06.438Z,17.83
2018-09-08T23:11:35.272Z,17.80
2018-09-08T23:14:04.183Z,18.60
2018-09-08T23:16:33.328Z,19.63
2018-09-08T23:19:02.641Z,17.60
2018-09-08T23:21:31.699Z,17.20
2018-09-08T23:24:00.749Z,17.80
2018-09-08T23:26:29.898Z,18.43
2018-09-08T23:28:58.861Z,19.43
2018-09-08T23:31:28.233Z,18.03
2018-09-08T23:33:57.093Z,20.37
2018-09-08T23:36:26.191Z,19.30
2018-09-08T23:38:55.099Z,19.57
2018-09-08T23:41:23.927Z,19.30
2018-09-08T23:43:52.800Z,21.67
2018-09-08T23:46:21.827Z,20.27
2018-09-08T23:48:50.732Z,18.93
2018-09-08T23:51:19.679Z,19.13
2018-09-08T23:53:48.608Z,20.87
2018-09-08T23:56:17.572Z,19.63
2018-09-08T23:58:46.592Z,20.10
